sensor_id;sensor_type;location;lat;lon;timestamp;P1;durP1;ratioP1;P2;durP2;ratioP2
52866;SDS011;38739;53.324;6.862;2023-04-03T00:02:17;3.72;;;1.10;;
52866;SDS011;38739;53.324;6.862;2023-04-03T00:04:43;3.33;;;0.82;;
52866;SDS011;38739;53.324;6.862;2023-04-03T00:07:08;4.05;;;1.05;;
52866;SDS011;38739;53.324;6.862;2023-04-03T00:09:34;6.25;;;1.23;;
52866;SDS011;38739;53.324;6.862;2023-04-03T00:12:00;4.82;;;1.17;;
52866;SDS011;38739;53.324;6.862;2023-04-03T00:14:26;1.90;;;1.00;;
52866;SDS011;38739;53.324;6.862;2023-04-03T00:16:52;3.47;;;1.10;;
52866;SDS011;38739;53.324;6.862;2023-04-03T00:19:18;3.67;;;1.20;;
52866;SDS011;38739;53.324;6.862;2023-04-03T00:21:44;3.17;;;0.90;;
52866;SDS011;38739;53.324;6.862;2023-04-03T00:24:10;3.90;;;1.30;;
52866;SDS011;38739;53.324;6.862;2023-04-03T00:26:36;4.60;;;1.30;;
52866;SDS011;38739;53.324;6.862;2023-04-03T00:29:02;4.72;;;1.20;;
52866;SDS011;38739;53.324;6.862;2023-04-03T00:31:28;5.07;;;1.48;;
52866;SDS011;38739;53.324;6.862;2023-04-03T00:33:53;3.90;;;1.20;;
52866;SDS011;38739;53.324;6.862;2023-04-03T00:36:19;4.72;;;1.48;;
52866;SDS011;38739;53.324;6.862;2023-04-03T00:38:45;4.88;;;1.30;;
52866;SDS011;38739;53.324;6.862;2023-04-03T00:41:11;3.45;;;1.02;;
52866;SDS011;38739;53.324;6.862;2023-04-03T00:43:37;6.22;;;1.30;;
52866;SDS011;38739;53.324;6.862;2023-04-03T00:46:03;3.63;;;1.30;;
52866;SDS011;38739;53.324;6.862;2023-04-03T00:48:30;6.00;;;1.40;;
52866;SDS011;38739;53.324;6.862;2023-04-03T00:50:59;5.28;;;1.40;;
52866;SDS011;38739;53.324;6.862;2023-04-03T00:53:27;3.60;;;1.27;;
52866;SDS011;38739;53.324;6.862;2023-04-03T00:56:05;6.10;;;1.50;;
52866;SDS011;38739;53.324;6.862;2023-04-03T00:58:35;7.80;;;1.50;;
52866;SDS011;38739;53.324;6.862;2023-04-03T01:01:05;5.68;;;1.40;;
52866;SDS011;38739;53.324;6.862;2023-04-03T01:03:35;6.38;;;1.88;;
52866;SDS011;38739;53.324;6.862;2023-04-03T01:06:01;4.07;;;1.33;;
52866;SDS011;38739;53.324;6.862;2023-04-03T01:08:27;5.68;;;1.40;;
52866;SDS011;38739;53.324;6.862;2023-04-03T01:10:52;4.53;;;1.60;;
52866;SDS011;38739;53.324;6.862;2023-04-03T01:13:23;4.28;;;1.40;;
52866;SDS011;38739;53.324;6.862;2023-04-03T01:15:55;6.65;;;1.50;;
52866;SDS011;38739;53.324;6.862;2023-04-03T01:18:22;6.93;;;1.50;;
52866;SDS011;38739;53.324;6.862;2023-04-03T01:20:57;9.05;;;1.95;;
52866;SDS011;38739;53.324;6.862;2023-04-03T01:26:18;9.07;;;2.13;;
52866;SDS011;38739;53.324;6.862;2023-04-03T01:28:44;6.95;;;1.90;;
52866;SDS011;38739;53.324;6.862;2023-04-03T01:31:21;7.47;;;1.70;;
52866;SDS011;38739;53.324;6.862;2023-04-03T01:33:58;5.82;;;1.70;;
52866;SDS011;38739;53.324;6.862;2023-04-03T01:36:28;8.73;;;1.88;;
52866;SDS011;38739;53.324;6.862;2023-04-03T01:38:56;6.80;;;1.80;;
52866;SDS011;38739;53.324;6.862;2023-04-03T01:41:23;8.05;;;1.70;;
52866;SDS011;38739;53.324;6.862;2023-04-03T01:43:49;5.43;;;1.85;;
52866;SDS011;38739;53.324;6.862;2023-04-03T01:46:16;4.63;;;1.65;;
52866;SDS011;38739;53.324;6.862;2023-04-03T01:48:42;10.18;;;2.15;;
52866;SDS011;38739;53.324;6.862;2023-04-03T01:51:08;7.65;;;1.92;;
52866;SDS011;38739;53.324;6.862;2023-04-03T01:53:34;9.23;;;1.95;;
52866;SDS011;38739;53.324;6.862;2023-04-03T01:56:00;4.80;;;1.92;;
52866;SDS011;38739;53.324;6.862;2023-04-03T01:58:26;5.00;;;1.90;;
52866;SDS011;38739;53.324;6.862;2023-04-03T02:00:52;10.60;;;2.30;;
52866;SDS011;38739;53.324;6.862;2023-04-03T02:03:18;6.88;;;1.80;;
52866;SDS011;38739;53.324;6.862;2023-04-03T02:05:44;10.02;;;2.30;;
52866;SDS011;38739;53.324;6.862;2023-04-03T02:08:10;6.55;;;2.13;;
52866;SDS011;38739;53.324;6.862;2023-04-03T02:10:36;9.13;;;2.55;;
52866;SDS011;38739;53.324;6.862;2023-04-03T02:13:02;7.10;;;2.40;;
52866;SDS011;38739;53.324;6.862;2023-04-03T02:15:28;8.68;;;2.85;;
52866;SDS011;38739;53.324;6.862;2023-04-03T02:17:54;7.45;;;2.00;;
52866;SDS011;38739;53.324;6.862;2023-04-03T02:20:20;7.60;;;2.50;;
52866;SDS011;38739;53.324;6.862;2023-04-03T02:22:45;9.10;;;2.42;;
52866;SDS011;38739;53.324;6.862;2023-04-03T02:25:11;6.35;;;2.00;;
52866;SDS011;38739;53.324;6.862;2023-04-03T02:27:38;9.75;;;2.33;;
52866;SDS011;38739;53.324;6.862;2023-04-03T02:30:04;9.00;;;2.10;;
52866;SDS011;38739;53.324;6.862;2023-04-03T02:32:30;8.27;;;2.42;;
52866;SDS011;38739;53.324;6.862;2023-04-03T02:34:56;4.60;;;1.98;;
52866;SDS011;38739;53.324;6.862;2023-04-03T02:37:22;8.77;;;2.50;;
52866;SDS011;38739;53.324;6.862;2023-04-03T02:39:47;7.15;;;2.67;;
52866;SDS011;38739;53.324;6.862;2023-04-03T02:42:13;8.73;;;2.22;;
52866;SDS011;38739;53.324;6.862;2023-04-03T02:44:39;13.00;;;2.30;;
52866;SDS011;38739;53.324;6.862;2023-04-03T02:47:05;5.78;;;2.08;;
52866;SDS011;38739;53.324;6.862;2023-04-03T02:49:31;9.25;;;2.22;;
52866;SDS011;38739;53.324;6.862;2023-04-03T02:51:56;5.10;;;2.13;;
52866;SDS011;38739;53.324;6.862;2023-04-03T02:54:22;7.18;;;2.25;;
52866;SDS011;38739;53.324;6.862;2023-04-03T02:56:49;6.57;;;2.30;;
52866;SDS011;38739;53.324;6.862;2023-04-03T02:59:15;9.20;;;2.42;;
52866;SDS011;38739;53.324;6.862;2023-04-03T03:01:41;8.38;;;2.95;;
52866;SDS011;38739;53.324;6.862;2023-04-03T03:04:06;7.40;;;2.15;;
52866;SDS011;38739;53.324;6.862;2023-04-03T03:06:32;8.90;;;2.65;;
52866;SDS011;38739;53.324;6.862;2023-04-03T03:08:58;6.85;;;2.45;;
52866;SDS011;38739;53.324;6.862;2023-04-03T03:11:24;8.57;;;2.70;;
52866;SDS011;38739;53.324;6.862;2023-04-03T03:13:50;6.03;;;2.10;;
52866;SDS011;38739;53.324;6.862;2023-04-03T03:16:16;9.35;;;2.70;;
52866;SDS011;38739;53.324;6.862;2023-04-03T03:18:41;10.13;;;2.80;;
52866;SDS011;38739;53.324;6.862;2023-04-03T03:21:08;6.97;;;2.10;;
52866;SDS011;38739;53.324;6.862;2023-04-03T03:23:35;5.88;;;2.03;;
52866;SDS011;38739;53.324;6.862;2023-04-03T03:26:02;8.65;;;3.50;;
52866;SDS011;38739;53.324;6.862;2023-04-03T03:28:29;7.90;;;1.90;;
52866;SDS011;38739;53.324;6.862;2023-04-03T03:30:56;8.30;;;2.03;;
52866;SDS011;38739;53.324;6.862;2023-04-03T03:33:22;6.70;;;2.00;;
52866;SDS011;38739;53.324;6.862;2023-04-03T03:35:48;7.15;;;1.95;;
52866;SDS011;38739;53.324;6.862;2023-04-03T03:38:14;8.10;;;2.10;;
52866;SDS011;38739;53.324;6.862;2023-04-03T03:40:40;9.27;;;2.60;;
52866;SDS011;38739;53.324;6.862;2023-04-03T03:43:06;8.30;;;2.20;;
52866;SDS011;38739;53.324;6.862;2023-04-03T03:45:32;8.95;;;2.22;;
52866;SDS011;38739;53.324;6.862;2023-04-03T03:47:57;10.25;;;2.22;;
52866;SDS011;38739;53.324;6.862;2023-04-03T03:50:23;6.53;;;2.63;;
52866;SDS011;38739;53.324;6.862;2023-04-03T03:52:49;5.70;;;2.10;;
52866;SDS011;38739;53.324;6.862;2023-04-03T03:55:15;8.10;;;2.40;;
52866;SDS011;38739;53.324;6.862;2023-04-03T03:57:41;7.97;;;2.35;;
52866;SDS011;38739;53.324;6.862;2023-04-03T04:00:07;6.38;;;2.03;;
52866;SDS011;38739;53.324;6.862;2023-04-03T04:02:33;6.35;;;2.38;;
52866;SDS011;38739;53.324;6.862;2023-04-03T04:04:59;11.80;;;3.00;;
52866;SDS011;38739;53.324;6.862;2023-04-03T04:07:25;11.30;;;2.97;;
52866;SDS011;38739;53.324;6.862;2023-04-03T04:09:53;8.85;;;2.38;;
52866;SDS011;38739;53.324;6.862;2023-04-03T04:12:19;9.80;;;3.20;;
52866;SDS011;38739;53.324;6.862;2023-04-03T04:14:45;7.85;;;2.65;;
52866;SDS011;38739;53.324;6.862;2023-04-03T04:17:12;8.77;;;2.58;;
52866;SDS011;38739;53.324;6.862;2023-04-03T04:19:38;8.05;;;2.63;;
52866;SDS011;38739;53.324;6.862;2023-04-03T04:22:04;8.98;;;2.30;;
52866;SDS011;38739;53.324;6.862;2023-04-03T04:24:29;8.88;;;2.67;;
52866;SDS011;38739;53.324;6.862;2023-04-03T04:26:55;11.82;;;2.72;;
52866;SDS011;38739;53.324;6.862;2023-04-03T04:29:21;6.38;;;2.45;;
52866;SDS011;38739;53.324;6.862;2023-04-03T04:31:46;9.73;;;2.70;;
52866;SDS011;38739;53.324;6.862;2023-04-03T04:34:12;7.95;;;2.22;;
52866;SDS011;38739;53.324;6.862;2023-04-03T04:36:38;8.50;;;2.40;;
52866;SDS011;38739;53.324;6.862;2023-04-03T04:39:05;9.73;;;2.60;;
52866;SDS011;38739;53.324;6.862;2023-04-03T04:41:31;6.88;;;2.55;;
52866;SDS011;38739;53.324;6.862;2023-04-03T04:43:57;8.48;;;2.40;;
52866;SDS011;38739;53.324;6.862;2023-04-03T04:46:23;8.82;;;2.65;;
52866;SDS011;38739;53.324;6.862;2023-04-03T04:48:49;10.18;;;2.25;;
52866;SDS011;38739;53.324;6.862;2023-04-03T04:51:15;8.02;;;2.40;;
52866;SDS011;38739;53.324;6.862;2023-04-03T04:53:41;7.78;;;2.53;;
52866;SDS011;38739;53.324;6.862;2023-04-03T04:56:07;9.80;;;2.60;;
52866;SDS011;38739;53.324;6.862;2023-04-03T04:58:33;7.82;;;2.67;;
52866;SDS011;38739;53.324;6.862;2023-04-03T05:01:00;9.32;;;2.90;;
52866;SDS011;38739;53.324;6.862;2023-04-03T05:03:27;9.45;;;2.95;;
52866;SDS011;38739;53.324;6.862;2023-04-03T05:05:53;9.48;;;2.90;;
52866;SDS011;38739;53.324;6.862;2023-04-03T05:08:19;11.38;;;3.40;;
52866;SDS011;38739;53.324;6.862;2023-04-03T05:10:45;9.38;;;3.08;;
52866;SDS011;38739;53.324;6.862;2023-04-03T05:13:11;10.93;;;3.78;;
52866;SDS011;38739;53.324;6.862;2023-04-03T05:15:37;11.90;;;3.67;;
52866;SDS011;38739;53.324;6.862;2023-04-03T05:18:03;8.35;;;2.97;;
52866;SDS011;38739;53.324;6.862;2023-04-03T05:20:30;10.85;;;2.50;;
52866;SDS011;38739;53.324;6.862;2023-04-03T05:22:56;5.95;;;2.22;;
52866;SDS011;38739;53.324;6.862;2023-04-03T05:25:22;12.13;;;3.03;;
52866;SDS011;38739;53.324;6.862;2023-04-03T05:27:48;10.63;;;2.78;;
52866;SDS011;38739;53.324;6.862;2023-04-03T05:30:14;11.27;;;3.00;;
52866;SDS011;38739;53.324;6.862;2023-04-03T05:32:40;10.52;;;2.85;;
52866;SDS011;38739;53.324;6.862;2023-04-03T05:35:07;11.68;;;2.95;;
52866;SDS011;38739;53.324;6.862;2023-04-03T05:37:33;9.20;;;2.75;;
52866;SDS011;38739;53.324;6.862;2023-04-03T05:39:59;12.77;;;2.92;;
52866;SDS011;38739;53.324;6.862;2023-04-03T05:42:25;11.88;;;3.00;;
52866;SDS011;38739;53.324;6.862;2023-04-03T05:44:51;8.20;;;2.90;;
52866;SDS011;38739;53.324;6.862;2023-04-03T05:47:17;11.60;;;3.03;;
52866;SDS011;38739;53.324;6.862;2023-04-03T05:49:43;10.55;;;2.90;;
52866;SDS011;38739;53.324;6.862;2023-04-03T05:54:51;8.25;;;2.95;;
52866;SDS011;38739;53.324;6.862;2023-04-03T05:57:17;13.05;;;2.90;;
52866;SDS011;38739;53.324;6.862;2023-04-03T05:59:43;11.32;;;3.45;;
52866;SDS011;38739;53.324;6.862;2023-04-03T06:02:11;11.63;;;2.70;;
52866;SDS011;38739;53.324;6.862;2023-04-03T06:04:39;5.50;;;2.72;;
52866;SDS011;38739;53.324;6.862;2023-04-03T06:07:04;13.98;;;3.40;;
52866;SDS011;38739;53.324;6.862;2023-04-03T06:09:30;9.80;;;3.00;;
52866;SDS011;38739;53.324;6.862;2023-04-03T06:11:56;12.52;;;3.63;;
52866;SDS011;38739;53.324;6.862;2023-04-03T06:14:24;11.82;;;3.63;;
52866;SDS011;38739;53.324;6.862;2023-04-03T06:16:51;11.48;;;3.25;;
52866;SDS011;38739;53.324;6.862;2023-04-03T06:19:17;10.95;;;3.53;;
52866;SDS011;38739;53.324;6.862;2023-04-03T06:21:43;8.07;;;3.05;;
52866;SDS011;38739;53.324;6.862;2023-04-03T06:24:09;10.25;;;2.78;;
52866;SDS011;38739;53.324;6.862;2023-04-03T06:26:38;9.77;;;3.38;;
52866;SDS011;38739;53.324;6.862;2023-04-03T06:29:04;9.90;;;3.25;;
52866;SDS011;38739;53.324;6.862;2023-04-03T06:31:30;10.68;;;2.67;;
52866;SDS011;38739;53.324;6.862;2023-04-03T06:33:55;11.98;;;3.03;;
52866;SDS011;38739;53.324;6.862;2023-04-03T06:36:22;8.50;;;3.28;;
52866;SDS011;38739;53.324;6.862;2023-04-03T06:38:48;8.25;;;2.83;;
52866;SDS011;38739;53.324;6.862;2023-04-03T06:41:14;8.52;;;2.95;;
52866;SDS011;38739;53.324;6.862;2023-04-03T06:43:41;14.13;;;3.50;;
52866;SDS011;38739;53.324;6.862;2023-04-03T06:46:12;8.10;;;2.90;;
52866;SDS011;38739;53.324;6.862;2023-04-03T06:48:41;6.93;;;2.97;;
52866;SDS011;38739;53.324;6.862;2023-04-03T06:51:11;8.05;;;3.30;;
52866;SDS011;38739;53.324;6.862;2023-04-03T06:53:45;7.78;;;2.97;;
52866;SDS011;38739;53.324;6.862;2023-04-03T06:56:15;9.48;;;3.30;;
52866;SDS011;38739;53.324;6.862;2023-04-03T06:58:41;12.20;;;2.88;;
52866;SDS011;38739;53.324;6.862;2023-04-03T07:01:07;7.80;;;2.45;;
52866;SDS011;38739;53.324;6.862;2023-04-03T07:03:35;6.60;;;2.60;;
52866;SDS011;38739;53.324;6.862;2023-04-03T07:06:01;10.02;;;2.88;;
52866;SDS011;38739;53.324;6.862;2023-04-03T07:08:28;7.15;;;2.28;;
52866;SDS011;38739;53.324;6.862;2023-04-03T07:10:54;8.00;;;2.25;;
52866;SDS011;38739;53.324;6.862;2023-04-03T07:13:20;8.35;;;1.98;;
52866;SDS011;38739;53.324;6.862;2023-04-03T07:15:46;10.57;;;2.97;;
52866;SDS011;38739;53.324;6.862;2023-04-03T07:18:12;7.22;;;2.55;;
52866;SDS011;38739;53.324;6.862;2023-04-03T07:20:38;8.27;;;2.15;;
52866;SDS011;38739;53.324;6.862;2023-04-03T07:23:04;7.05;;;2.38;;
52866;SDS011;38739;53.324;6.862;2023-04-03T07:25:30;8.98;;;2.40;;
52866;SDS011;38739;53.324;6.862;2023-04-03T07:27:57;9.85;;;2.40;;
52866;SDS011;38739;53.324;6.862;2023-04-03T07:30:23;9.63;;;2.42;;
52866;SDS011;38739;53.324;6.862;2023-04-03T07:32:49;8.23;;;2.08;;
52866;SDS011;38739;53.324;6.862;2023-04-03T07:35:14;6.20;;;2.38;;
52866;SDS011;38739;53.324;6.862;2023-04-03T07:37:41;7.63;;;2.40;;
52866;SDS011;38739;53.324;6.862;2023-04-03T07:40:07;6.35;;;2.40;;
52866;SDS011;38739;53.324;6.862;2023-04-03T07:42:33;8.55;;;2.17;;
52866;SDS011;38739;53.324;6.862;2023-04-03T07:45:00;8.57;;;2.45;;
52866;SDS011;38739;53.324;6.862;2023-04-03T07:47:26;7.55;;;2.30;;
52866;SDS011;38739;53.324;6.862;2023-04-03T07:49:52;6.97;;;2.38;;
52866;SDS011;38739;53.324;6.862;2023-04-03T07:52:18;13.43;;;2.38;;
52866;SDS011;38739;53.324;6.862;2023-04-03T07:54:44;6.38;;;2.00;;
52866;SDS011;38739;53.324;6.862;2023-04-03T07:57:10;6.35;;;1.83;;
52866;SDS011;38739;53.324;6.862;2023-04-03T07:59:36;6.80;;;2.00;;
52866;SDS011;38739;53.324;6.862;2023-04-03T08:02:02;6.90;;;2.08;;
52866;SDS011;38739;53.324;6.862;2023-04-03T08:04:30;6.97;;;1.90;;
52866;SDS011;38739;53.324;6.862;2023-04-03T08:06:55;5.57;;;1.70;;
52866;SDS011;38739;53.324;6.862;2023-04-03T08:09:21;8.10;;;2.10;;
52866;SDS011;38739;53.324;6.862;2023-04-03T08:11:47;6.38;;;2.25;;
52866;SDS011;38739;53.324;6.862;2023-04-03T08:14:13;5.78;;;2.03;;
52866;SDS011;38739;53.324;6.862;2023-04-03T08:16:44;7.97;;;2.00;;
52866;SDS011;38739;53.324;6.862;2023-04-03T08:19:10;7.63;;;2.35;;
52866;SDS011;38739;53.324;6.862;2023-04-03T08:21:39;6.30;;;2.20;;
52866;SDS011;38739;53.324;6.862;2023-04-03T08:24:06;7.30;;;2.08;;
52866;SDS011;38739;53.324;6.862;2023-04-03T08:26:33;7.32;;;2.05;;
52866;SDS011;38739;53.324;6.862;2023-04-03T08:28:59;6.32;;;1.92;;
52866;SDS011;38739;53.324;6.862;2023-04-03T08:31:25;4.50;;;1.80;;
52866;SDS011;38739;53.324;6.862;2023-04-03T08:33:51;5.70;;;1.83;;
52866;SDS011;38739;53.324;6.862;2023-04-03T08:38:45;4.20;;;1.65;;
52866;SDS011;38739;53.324;6.862;2023-04-03T08:41:14;5.97;;;2.20;;
52866;SDS011;38739;53.324;6.862;2023-04-03T08:46:23;5.53;;;1.95;;
52866;SDS011;38739;53.324;6.862;2023-04-03T08:48:59;5.80;;;2.00;;
52866;SDS011;38739;53.324;6.862;2023-04-03T08:51:25;10.35;;;2.20;;
52866;SDS011;38739;53.324;6.862;2023-04-03T08:53:58;4.70;;;1.83;;
52866;SDS011;38739;53.324;6.862;2023-04-03T08:56:27;4.68;;;2.15;;
52866;SDS011;38739;53.324;6.862;2023-04-03T08:58:59;4.32;;;1.60;;
52866;SDS011;38739;53.324;6.862;2023-04-03T09:01:34;6.15;;;1.73;;
52866;SDS011;38739;53.324;6.862;2023-04-03T09:06:34;5.22;;;1.67;;
52866;SDS011;38739;53.324;6.862;2023-04-03T09:09:13;4.82;;;1.65;;
52866;SDS011;38739;53.324;6.862;2023-04-03T09:12:26;4.05;;;1.33;;
52866;SDS011;38739;53.324;6.862;2023-04-03T09:15:02;4.38;;;1.98;;
52866;SDS011;38739;53.324;6.862;2023-04-03T09:17:49;4.85;;;1.75;;
52866;SDS011;38739;53.324;6.862;2023-04-03T09:23:21;4.38;;;1.52;;
52866;SDS011;38739;53.324;6.862;2023-04-03T09:25:56;6.13;;;1.83;;
52866;SDS011;38739;53.324;6.862;2023-04-03T09:28:31;5.13;;;1.50;;
52866;SDS011;38739;53.324;6.862;2023-04-03T09:31:00;3.88;;;1.38;;
52866;SDS011;38739;53.324;6.862;2023-04-03T09:33:34;4.45;;;1.17;;
52866;SDS011;38739;53.324;6.862;2023-04-03T09:36:01;5.00;;;1.77;;
52866;SDS011;38739;53.324;6.862;2023-04-03T09:38:26;6.05;;;2.00;;
52866;SDS011;38739;53.324;6.862;2023-04-03T09:41:05;3.63;;;1.38;;
52866;SDS011;38739;53.324;6.862;2023-04-03T09:43:33;5.20;;;1.60;;
52866;SDS011;38739;53.324;6.862;2023-04-03T09:46:46;5.38;;;1.25;;
52866;SDS011;38739;53.324;6.862;2023-04-03T09:49:00;4.93;;;1.38;;
52866;SDS011;38739;53.324;6.862;2023-04-03T09:51:28;3.28;;;1.20;;
52866;SDS011;38739;53.324;6.862;2023-04-03T09:53:55;3.35;;;1.05;;
52866;SDS011;38739;53.324;6.862;2023-04-03T10:01:32;3.70;;;1.48;;
52866;SDS011;38739;53.324;6.862;2023-04-03T10:04:10;3.20;;;1.25;;
52866;SDS011;38739;53.324;6.862;2023-04-03T10:06:48;2.50;;;1.00;;
52866;SDS011;38739;53.324;6.862;2023-04-03T10:09:22;2.38;;;1.17;;
52866;SDS011;38739;53.324;6.862;2023-04-03T10:12:06;4.43;;;1.35;;
52866;SDS011;38739;53.324;6.862;2023-04-03T10:14:53;2.92;;;1.30;;
52866;SDS011;38739;53.324;6.862;2023-04-03T10:23:17;3.50;;;1.50;;
52866;SDS011;38739;53.324;6.862;2023-04-03T10:26:32;3.85;;;1.67;;
52866;SDS011;38739;53.324;6.862;2023-04-03T10:32:08;4.72;;;1.42;;
52866;SDS011;38739;53.324;6.862;2023-04-03T10:38:01;2.25;;;1.10;;
52866;SDS011;38739;53.324;6.862;2023-04-03T10:54:59;2.05;;;0.88;;
52866;SDS011;38739;53.324;6.862;2023-04-03T10:57:39;3.45;;;1.10;;
52866;SDS011;38739;53.324;6.862;2023-04-03T11:00:07;2.70;;;1.00;;
52866;SDS011;38739;53.324;6.862;2023-04-03T11:03:03;3.67;;;1.13;;
52866;SDS011;38739;53.324;6.862;2023-04-03T11:05:45;2.80;;;1.10;;
52866;SDS011;38739;53.324;6.862;2023-04-03T11:10:50;2.65;;;1.02;;
52866;SDS011;38739;53.324;6.862;2023-04-03T11:13:31;4.15;;;1.00;;
52866;SDS011;38739;53.324;6.862;2023-04-03T11:16:01;3.03;;;0.90;;
52866;SDS011;38739;53.324;6.862;2023-04-03T11:21:19;2.22;;;1.10;;
52866;SDS011;38739;53.324;6.862;2023-04-03T11:23:49;3.85;;;1.25;;
52866;SDS011;38739;53.324;6.862;2023-04-03T11:26:18;1.90;;;1.00;;
52866;SDS011;38739;53.324;6.862;2023-04-03T11:28:50;3.67;;;1.10;;
52866;SDS011;38739;53.324;6.862;2023-04-03T11:37:01;2.90;;;1.27;;
52866;SDS011;38739;53.324;6.862;2023-04-03T11:39:36;3.78;;;1.30;;
52866;SDS011;38739;53.324;6.862;2023-04-03T11:42:13;3.33;;;1.00;;
52866;SDS011;38739;53.324;6.862;2023-04-03T12:29:51;2.15;;;0.80;;
52866;SDS011;38739;53.324;6.862;2023-04-03T12:46:14;2.78;;;1.20;;
52866;SDS011;38739;53.324;6.862;2023-04-03T12:48:58;3.70;;;1.35;;
52866;SDS011;38739;53.324;6.862;2023-04-03T12:51:38;3.47;;;1.35;;
52866;SDS011;38739;53.324;6.862;2023-04-03T12:54:19;3.92;;;1.48;;
52866;SDS011;38739;53.324;6.862;2023-04-03T12:56:51;3.42;;;1.38;;
52866;SDS011;38739;53.324;6.862;2023-04-03T12:59:24;5.10;;;1.83;;
52866;SDS011;38739;53.324;6.862;2023-04-03T13:01:55;4.25;;;1.27;;
52866;SDS011;38739;53.324;6.862;2023-04-03T13:04:22;3.08;;;1.02;;
52866;SDS011;38739;53.324;6.862;2023-04-03T13:06:48;2.92;;;1.08;;
52866;SDS011;38739;53.324;6.862;2023-04-03T13:09:21;3.85;;;1.27;;
52866;SDS011;38739;53.324;6.862;2023-04-03T13:11:48;3.40;;;1.00;;
52866;SDS011;38739;53.324;6.862;2023-04-03T13:14:20;3.38;;;0.98;;
52866;SDS011;38739;53.324;6.862;2023-04-03T13:19:22;3.90;;;1.00;;
52866;SDS011;38739;53.324;6.862;2023-04-03T13:21:50;2.42;;;0.90;;
52866;SDS011;38739;53.324;6.862;2023-04-03T13:24:24;2.22;;;0.98;;
52866;SDS011;38739;53.324;6.862;2023-04-03T13:26:51;2.15;;;1.10;;
52866;SDS011;38739;53.324;6.862;2023-04-03T13:29:25;3.55;;;1.00;;
52866;SDS011;38739;53.324;6.862;2023-04-03T13:31:55;3.53;;;0.80;;
52866;SDS011;38739;53.324;6.862;2023-04-03T13:34:23;1.85;;;0.90;;
52866;SDS011;38739;53.324;6.862;2023-04-03T13:39:24;2.58;;;0.70;;
52866;SDS011;38739;53.324;6.862;2023-04-03T13:41:54;2.70;;;0.90;;
52866;SDS011;38739;53.324;6.862;2023-04-03T13:49:40;2.03;;;0.95;;
52866;SDS011;38739;53.324;6.862;2023-04-03T13:53:11;3.08;;;0.85;;
52866;SDS011;38739;53.324;6.862;2023-04-03T13:55:17;1.58;;;0.82;;
52866;SDS011;38739;53.324;6.862;2023-04-03T14:00:25;1.58;;;0.85;;
52866;SDS011;38739;53.324;6.862;2023-04-03T14:03:11;1.90;;;0.88;;
52866;SDS011;38739;53.324;6.862;2023-04-03T14:05:53;2.20;;;0.80;;
52866;SDS011;38739;53.324;6.862;2023-04-03T14:08:19;3.20;;;1.05;;
52866;SDS011;38739;53.324;6.862;2023-04-03T14:10:45;2.42;;;0.90;;
52866;SDS011;38739;53.324;6.862;2023-04-03T14:13:15;2.50;;;0.90;;
52866;SDS011;38739;53.324;6.862;2023-04-03T14:15:42;4.72;;;1.73;;
52866;SDS011;38739;53.324;6.862;2023-04-03T14:18:12;2.35;;;1.00;;
52866;SDS011;38739;53.324;6.862;2023-04-03T14:20:39;1.95;;;1.00;;
52866;SDS011;38739;53.324;6.862;2023-04-03T14:23:05;4.03;;;1.00;;
52866;SDS011;38739;53.324;6.862;2023-04-03T14:25:31;3.92;;;0.90;;
52866;SDS011;38739;53.324;6.862;2023-04-03T14:27:57;2.88;;;0.90;;
52866;SDS011;38739;53.324;6.862;2023-04-03T14:30:32;2.10;;;0.93;;
52866;SDS011;38739;53.324;6.862;2023-04-03T14:32:58;2.60;;;0.63;;
52866;SDS011;38739;53.324;6.862;2023-04-03T14:35:25;3.90;;;1.13;;
52866;SDS011;38739;53.324;6.862;2023-04-03T14:37:52;2.55;;;1.10;;
52866;SDS011;38739;53.324;6.862;2023-04-03T14:40:23;1.73;;;0.80;;
52866;SDS011;38739;53.324;6.862;2023-04-03T14:42:51;2.60;;;0.75;;
52866;SDS011;38739;53.324;6.862;2023-04-03T14:45:20;1.17;;;0.63;;
52866;SDS011;38739;53.324;6.862;2023-04-03T14:47:48;1.48;;;0.63;;
52866;SDS011;38739;53.324;6.862;2023-04-03T14:50:23;1.77;;;0.70;;
52866;SDS011;38739;53.324;6.862;2023-04-03T14:52:53;4.13;;;0.80;;
52866;SDS011;38739;53.324;6.862;2023-04-03T14:55:21;1.60;;;0.68;;
52866;SDS011;38739;53.324;6.862;2023-04-03T14:57:48;2.38;;;0.60;;
52866;SDS011;38739;53.324;6.862;2023-04-03T15:00:15;1.85;;;0.60;;
52866;SDS011;38739;53.324;6.862;2023-04-03T15:02:43;1.35;;;0.50;;
52866;SDS011;38739;53.324;6.862;2023-04-03T15:05:10;1.48;;;0.68;;
52866;SDS011;38739;53.324;6.862;2023-04-03T15:10:18;2.95;;;0.70;;
52866;SDS011;38739;53.324;6.862;2023-04-03T15:12:45;1.42;;;0.60;;
52866;SDS011;38739;53.324;6.862;2023-04-03T15:15:13;2.10;;;0.90;;
52866;SDS011;38739;53.324;6.862;2023-04-03T15:17:40;2.30;;;0.90;;
52866;SDS011;38739;53.324;6.862;2023-04-03T15:20:12;1.60;;;0.70;;
52866;SDS011;38739;53.324;6.862;2023-04-03T15:22:42;2.67;;;0.65;;
52866;SDS011;38739;53.324;6.862;2023-04-03T15:25:08;2.58;;;0.90;;
52866;SDS011;38739;53.324;6.862;2023-04-03T15:27:35;2.17;;;0.75;;
52866;SDS011;38739;53.324;6.862;2023-04-03T15:30:01;1.52;;;0.82;;
52866;SDS011;38739;53.324;6.862;2023-04-03T15:32:27;1.77;;;0.82;;
52866;SDS011;38739;53.324;6.862;2023-04-03T15:34:53;2.70;;;0.80;;
52866;SDS011;38739;53.324;6.862;2023-04-03T15:37:19;5.13;;;1.30;;
52866;SDS011;38739;53.324;6.862;2023-04-03T15:39:44;2.85;;;0.80;;
52866;SDS011;38739;53.324;6.862;2023-04-03T15:42:10;1.55;;;0.70;;
52866;SDS011;38739;53.324;6.862;2023-04-03T15:44:37;2.88;;;1.00;;
52866;SDS011;38739;53.324;6.862;2023-04-03T15:47:03;2.60;;;0.88;;
52866;SDS011;38739;53.324;6.862;2023-04-03T15:49:30;3.78;;;0.85;;
52866;SDS011;38739;53.324;6.862;2023-04-03T15:51:57;3.47;;;1.00;;
52866;SDS011;38739;53.324;6.862;2023-04-03T15:54:23;2.65;;;0.80;;
52866;SDS011;38739;53.324;6.862;2023-04-03T15:56:50;1.80;;;0.70;;
52866;SDS011;38739;53.324;6.862;2023-04-03T15:59:17;4.18;;;1.00;;
52866;SDS011;38739;53.324;6.862;2023-04-03T16:01:42;2.10;;;0.75;;
52866;SDS011;38739;53.324;6.862;2023-04-03T16:04:09;3.38;;;1.00;;
52866;SDS011;38739;53.324;6.862;2023-04-03T16:06:35;3.65;;;0.93;;
52866;SDS011;38739;53.324;6.862;2023-04-03T16:09:02;2.58;;;1.02;;
52866;SDS011;38739;53.324;6.862;2023-04-03T16:11:28;2.53;;;0.70;;
52866;SDS011;38739;53.324;6.862;2023-04-03T16:13:54;2.25;;;0.90;;
52866;SDS011;38739;53.324;6.862;2023-04-03T16:16:19;2.95;;;1.40;;
52866;SDS011;38739;53.324;6.862;2023-04-03T16:18:46;3.08;;;1.00;;
52866;SDS011;38739;53.324;6.862;2023-04-03T16:21:12;3.38;;;1.00;;
52866;SDS011;38739;53.324;6.862;2023-04-03T16:23:40;4.65;;;1.27;;
52866;SDS011;38739;53.324;6.862;2023-04-03T16:26:07;3.17;;;1.50;;
52866;SDS011;38739;53.324;6.862;2023-04-03T16:28:33;4.57;;;1.35;;
52866;SDS011;38739;53.324;6.862;2023-04-03T16:30:59;4.25;;;1.27;;
52866;SDS011;38739;53.324;6.862;2023-04-03T16:33:26;3.88;;;1.10;;
52866;SDS011;38739;53.324;6.862;2023-04-03T16:35:52;3.55;;;1.27;;
52866;SDS011;38739;53.324;6.862;2023-04-03T16:38:18;6.57;;;1.42;;
52866;SDS011;38739;53.324;6.862;2023-04-03T16:40:44;3.78;;;1.30;;
52866;SDS011;38739;53.324;6.862;2023-04-03T16:43:11;3.33;;;1.55;;
52866;SDS011;38739;53.324;6.862;2023-04-03T16:45:37;3.60;;;1.15;;
52866;SDS011;38739;53.324;6.862;2023-04-03T16:48:06;3.53;;;1.27;;
52866;SDS011;38739;53.324;6.862;2023-04-03T16:50:32;3.50;;;1.23;;
52866;SDS011;38739;53.324;6.862;2023-04-03T16:52:58;3.13;;;1.30;;
52866;SDS011;38739;53.324;6.862;2023-04-03T16:55:24;2.85;;;1.02;;
52866;SDS011;38739;53.324;6.862;2023-04-03T16:57:49;4.75;;;1.30;;
52866;SDS011;38739;53.324;6.862;2023-04-03T17:00:15;3.13;;;1.10;;
52866;SDS011;38739;53.324;6.862;2023-04-03T17:02:41;3.42;;;0.90;;
52866;SDS011;38739;53.324;6.862;2023-04-03T17:05:07;2.50;;;1.02;;
52866;SDS011;38739;53.324;6.862;2023-04-03T17:07:33;3.58;;;1.38;;